sensor_id;sensor_type;location;lat;lon;timestamp;pressure;altitude;pressure_sealevel;temperature;humidity
4570;BME280;2297;51.442;6.996;2023-05-14T00:00:10;100591.63;;;17.39;43.04
4570;BME280;2297;51.442;6.996;2023-05-14T00:02:37;100594.59;;;17.33;43.51
4570;BME280;2297;51.442;6.996;2023-05-14T00:05:04;100594.66;;;17.32;43.80
4570;BME280;2297;51.442;6.996;2023-05-14T00:07:31;100601.19;;;17.24;44.06
4570;BME280;2297;51.442;6.996;2023-05-14T00:09:59;100593.66;;;17.13;44.14
4570;BME280;2297;51.442;6.996;2023-05-14T00:12:26;100592.19;;;17.06;44.32
4570;BME280;2297;51.442;6.996;2023-05-14T00:14:54;100584.53;;;16.99;44.58
4570;BME280;2297;51.442;6.996;2023-05-14T00:17:21;100586.53;;;16.93;44.80
4570;BME280;2297;51.442;6.996;2023-05-14T00:19:48;100585.94;;;16.87;44.84
4570;BME280;2297;51.442;6.996;2023-05-14T00:22:14;100576.94;;;16.89;44.96
4570;BME280;2297;51.442;6.996;2023-05-14T00:24:41;100578.09;;;16.82;44.98
4570;BME280;2297;51.442;6.996;2023-05-14T00:27:09;100578.00;;;16.85;44.90
4570;BME280;2297;51.442;6.996;2023-05-14T00:29:36;100575.34;;;16.85;44.66
4570;BME280;2297;51.442;6.996;2023-05-14T00:32:03;100579.78;;;16.85;44.45
4570;BME280;2297;51.442;6.996;2023-05-14T00:34:30;100570.84;;;16.86;44.51
4570;BME280;2297;51.442;6.996;2023-05-14T00:36:56;100570.03;;;16.84;44.37
4570;BME280;2297;51.442;6.996;2023-05-14T00:39:23;100566.56;;;16.82;44.83
4570;BME280;2297;51.442;6.996;2023-05-14T00:41:49;100567.47;;;16.80;44.59
4570;BME280;2297;51.442;6.996;2023-05-14T00:44:17;100562.06;;;16.82;44.74
4570;BME280;2297;51.442;6.996;2023-05-14T00:46:44;100559.38;;;16.84;44.65
4570;BME280;2297;51.442;6.996;2023-05-14T00:49:11;100555.00;;;16.81;44.58
4570;BME280;2297;51.442;6.996;2023-05-14T00:51:38;100555.06;;;16.79;44.81
4570;BME280;2297;51.442;6.996;2023-05-14T00:54:05;100551.69;;;16.76;44.97
4570;BME280;2297;51.442;6.996;2023-05-14T00:56:33;100557.44;;;16.67;44.95
4570;BME280;2297;51.442;6.996;2023-05-14T00:59:00;100557.34;;;16.68;45.28
4570;BME280;2297;51.442;6.996;2023-05-14T01:01:28;100551.19;;;16.66;44.81
4570;BME280;2297;51.442;6.996;2023-05-14T01:03:55;100547.09;;;16.59;45.31
4570;BME280;2297;51.442;6.996;2023-05-14T01:06:28;100542.66;;;16.58;44.89
4570;BME280;2297;51.442;6.996;2023-05-14T01:09:04;100541.59;;;16.62;44.78
4570;BME280;2297;51.442;6.996;2023-05-14T01:11:39;100539.19;;;16.56;44.64
4570;BME280;2297;51.442;6.996;2023-05-14T01:14:13;100537.59;;;16.52;44.62
4570;BME280;2297;51.442;6.996;2023-05-14T01:16:44;100538.47;;;16.52;44.52
4570;BME280;2297;51.442;6.996;2023-05-14T01:19:20;100542.13;;;16.50;44.63
4570;BME280;2297;51.442;6.996;2023-05-14T01:21:49;100534.84;;;16.53;44.68
4570;BME280;2297;51.442;6.996;2023-05-14T01:24:15;100533.84;;;16.56;43.88
4570;BME280;2297;51.442;6.996;2023-05-14T01:26:42;100535.84;;;16.51;44.14
4570;BME280;2297;51.442;6.996;2023-05-14T01:29:14;100531.41;;;16.51;44.14
4570;BME280;2297;51.442;6.996;2023-05-14T01:31:44;100530.53;;;16.51;43.83
4570;BME280;2297;51.442;6.996;2023-05-14T01:34:13;100525.31;;;16.47;43.87
4570;BME280;2297;51.442;6.996;2023-05-14T01:36:41;100517.41;;;16.46;44.01
4570;BME280;2297;51.442;6.996;2023-05-14T01:39:10;100532.53;;;16.45;43.84
4570;BME280;2297;51.442;6.996;2023-05-14T01:41:38;100529.19;;;16.40;44.07
4570;BME280;2297;51.442;6.996;2023-05-14T01:44:06;100526.72;;;16.36;44.28
4570;BME280;2297;51.442;6.996;2023-05-14T01:46:34;100522.38;;;16.33;44.23
4570;BME280;2297;51.442;6.996;2023-05-14T01:49:01;100520.66;;;16.32;44.25
4570;BME280;2297;51.442;6.996;2023-05-14T01:51:27;100522.66;;;16.27;44.31
4570;BME280;2297;51.442;6.996;2023-05-14T01:53:54;100520.09;;;16.24;44.39
4570;BME280;2297;51.442;6.996;2023-05-14T01:56:22;100520.91;;;16.26;44.48
4570;BME280;2297;51.442;6.996;2023-05-14T01:58:49;100517.44;;;16.24;44.47
4570;BME280;2297;51.442;6.996;2023-05-14T02:01:16;100519.31;;;16.22;44.58
4570;BME280;2297;51.442;6.996;2023-05-14T02:03:43;100513.84;;;16.25;44.78
4570;BME280;2297;51.442;6.996;2023-05-14T02:06:09;100510.50;;;16.20;44.71
4570;BME280;2297;51.442;6.996;2023-05-14T02:08:36;100509.88;;;16.13;44.70
4570;BME280;2297;51.442;6.996;2023-05-14T02:11:02;100520.53;;;16.13;44.63
4570;BME280;2297;51.442;6.996;2023-05-14T02:13:30;100518.88;;;16.10;44.82
4570;BME280;2297;51.442;6.996;2023-05-14T02:15:57;100507.66;;;16.02;45.31
4570;BME280;2297;51.442;6.996;2023-05-14T02:18:24;100517.50;;;16.00;45.26
4570;BME280;2297;51.442;6.996;2023-05-14T02:20:50;100505.81;;;16.04;45.21
4570;BME280;2297;51.442;6.996;2023-05-14T02:23:17;100509.50;;;16.00;45.31
4570;BME280;2297;51.442;6.996;2023-05-14T02:25:43;100507.78;;;15.99;45.39
4570;BME280;2297;51.442;6.996;2023-05-14T02:28:10;100514.06;;;15.96;45.31
4570;BME280;2297;51.442;6.996;2023-05-14T02:30:38;100514.06;;;15.96;45.03
4570;BME280;2297;51.442;6.996;2023-05-14T02:33:04;100510.78;;;15.90;45.28
4570;BME280;2297;51.442;6.996;2023-05-14T02:35:31;100517.03;;;15.89;45.68
4570;BME280;2297;51.442;6.996;2023-05-14T02:37:58;100516.22;;;15.87;45.37
4570;BME280;2297;51.442;6.996;2023-05-14T02:40:24;100517.97;;;15.88;45.67
4570;BME280;2297;51.442;6.996;2023-05-14T02:42:51;100514.38;;;15.89;45.11
4570;BME280;2297;51.442;6.996;2023-05-14T02:45:18;100517.28;;;15.83;44.94
4570;BME280;2297;51.442;6.996;2023-05-14T02:47:47;100513.13;;;15.75;45.02
4570;BME280;2297;51.442;6.996;2023-05-14T02:50:13;100521.13;;;15.75;45.31
4570;BME280;2297;51.442;6.996;2023-05-14T02:52:40;100524.56;;;15.77;45.44
4570;BME280;2297;51.442;6.996;2023-05-14T02:55:10;100515.81;;;15.75;45.19
4570;BME280;2297;51.442;6.996;2023-05-14T02:57:37;100515.91;;;15.72;45.39
4570;BME280;2297;51.442;6.996;2023-05-14T03:00:06;100510.56;;;15.72;45.41
4570;BME280;2297;51.442;6.996;2023-05-14T03:02:33;100509.72;;;15.72;45.36
4570;BME280;2297;51.442;6.996;2023-05-14T03:05:01;100512.44;;;15.70;45.18
4570;BME280;2297;51.442;6.996;2023-05-14T03:07:28;100518.81;;;15.66;45.35
4570;BME280;2297;51.442;6.996;2023-05-14T03:09:55;100503.84;;;15.63;45.61
4570;BME280;2297;51.442;6.996;2023-05-14T03:12:21;100515.41;;;15.62;45.28
4570;BME280;2297;51.442;6.996;2023-05-14T03:14:48;100504.81;;;15.61;45.58
4570;BME280;2297;51.442;6.996;2023-05-14T03:17:15;100504.13;;;15.56;45.60
4570;BME280;2297;51.442;6.996;2023-05-14T03:19:41;100507.72;;;15.55;45.54
4570;BME280;2297;51.442;6.996;2023-05-14T03:22:09;100512.09;;;15.56;45.79
4570;BME280;2297;51.442;6.996;2023-05-14T03:24:38;100514.84;;;15.54;45.68
4570;BME280;2297;51.442;6.996;2023-05-14T03:27:05;100510.66;;;15.47;46.08
4570;BME280;2297;51.442;6.996;2023-05-14T03:29:31;100512.63;;;15.42;46.25
4570;BME280;2297;51.442;6.996;2023-05-14T03:31:58;100511.66;;;15.44;46.29
4570;BME280;2297;51.442;6.996;2023-05-14T03:34:24;100513.38;;;15.45;46.31
4570;BME280;2297;51.442;6.996;2023-05-14T03:36:51;100509.94;;;15.43;46.11
4570;BME280;2297;51.442;6.996;2023-05-14T03:39:19;100507.44;;;15.39;46.11
4570;BME280;2297;51.442;6.996;2023-05-14T03:41:46;100512.13;;;15.32;46.57
4570;BME280;2297;51.442;6.996;2023-05-14T03:44:13;100506.91;;;15.29;46.62
4570;BME280;2297;51.442;6.996;2023-05-14T03:46:40;100510.50;;;15.28;46.40
4570;BME280;2297;51.442;6.996;2023-05-14T03:49:06;100502.44;;;15.29;46.74
4570;BME280;2297;51.442;6.996;2023-05-14T03:51:33;100496.28;;;15.29;46.65
4570;BME280;2297;51.442;6.996;2023-05-14T03:54:00;100499.97;;;15.25;46.54
4570;BME280;2297;51.442;6.996;2023-05-14T03:56:28;100494.75;;;15.22;46.67
4570;BME280;2297;51.442;6.996;2023-05-14T03:58:54;100490.66;;;15.13;46.60
4570;BME280;2297;51.442;6.996;2023-05-14T04:01:21;100491.72;;;15.07;46.80
4570;BME280;2297;51.442;6.996;2023-05-14T04:03:48;100483.16;;;14.99;46.67
4570;BME280;2297;51.442;6.996;2023-05-14T04:06:14;100492.28;;;14.92;46.62
4570;BME280;2297;51.442;6.996;2023-05-14T04:08:41;100495.28;;;14.83;46.93
4570;BME280;2297;51.442;6.996;2023-05-14T04:11:07;100489.97;;;14.83;47.13
4570;BME280;2297;51.442;6.996;2023-05-14T04:13:35;100488.22;;;14.82;47.13
4570;BME280;2297;51.442;6.996;2023-05-14T04:16:02;100484.69;;;14.81;47.48
4570;BME280;2297;51.442;6.996;2023-05-14T04:18:29;100490.75;;;14.85;47.17
4570;BME280;2297;51.442;6.996;2023-05-14T04:20:59;100485.44;;;14.85;47.08
4570;BME280;2297;51.442;6.996;2023-05-14T04:23:26;100483.47;;;14.90;47.30
4570;BME280;2297;51.442;6.996;2023-05-14T04:25:52;100478.06;;;14.93;47.14
4570;BME280;2297;51.442;6.996;2023-05-14T04:28:19;100479.00;;;14.92;47.60
4570;BME280;2297;51.442;6.996;2023-05-14T04:30:48;100479.69;;;14.97;47.55
4570;BME280;2297;51.442;6.996;2023-05-14T04:33:15;100470.78;;;14.98;46.96
4570;BME280;2297;51.442;6.996;2023-05-14T04:35:43;100473.50;;;14.96;47.14
4570;BME280;2297;51.442;6.996;2023-05-14T04:38:10;100475.22;;;14.97;47.80
4570;BME280;2297;51.442;6.996;2023-05-14T04:40:38;100472.50;;;14.99;47.43
4570;BME280;2297;51.442;6.996;2023-05-14T04:43:05;100467.09;;;15.02;47.43
4570;BME280;2297;51.442;6.996;2023-05-14T04:45:32;100467.97;;;15.03;47.27
4570;BME280;2297;51.442;6.996;2023-05-14T04:48:01;100465.09;;;15.07;47.12
4570;BME280;2297;51.442;6.996;2023-05-14T04:50:28;100480.88;;;15.13;47.05
4570;BME280;2297;51.442;6.996;2023-05-14T04:52:54;100479.97;;;15.15;47.45
4570;BME280;2297;51.442;6.996;2023-05-14T04:55:21;100475.34;;;15.20;47.48
4570;BME280;2297;51.442;6.996;2023-05-14T04:57:48;100476.97;;;15.24;47.13
4570;BME280;2297;51.442;6.996;2023-05-14T05:00:15;100475.09;;;15.26;47.46
4570;BME280;2297;51.442;6.996;2023-05-14T05:02:42;100467.94;;;15.28;47.13
4570;BME280;2297;51.442;6.996;2023-05-14T05:05:10;100478.44;;;15.31;46.86
4570;BME280;2297;51.442;6.996;2023-05-14T05:07:37;100473.13;;;15.31;46.92
4570;BME280;2297;51.442;6.996;2023-05-14T05:10:04;100468.69;;;15.32;47.09
4570;BME280;2297;51.442;6.996;2023-05-14T05:12:31;100481.81;;;15.36;47.06
4570;BME280;2297;51.442;6.996;2023-05-14T05:14:59;100476.38;;;15.39;46.87
4570;BME280;2297;51.442;6.996;2023-05-14T05:17:26;100474.38;;;15.44;47.26
4570;BME280;2297;51.442;6.996;2023-05-14T05:19:52;100476.88;;;15.49;46.77
4570;BME280;2297;51.442;6.996;2023-05-14T05:22:20;100474.03;;;15.54;46.52
4570;BME280;2297;51.442;6.996;2023-05-14T05:24:47;100476.66;;;15.55;47.40
4570;BME280;2297;51.442;6.996;2023-05-14T05:27:14;100469.47;;;15.57;47.24
4570;BME280;2297;51.442;6.996;2023-05-14T05:29:40;100480.09;;;15.57;47.35
4570;BME280;2297;51.442;6.996;2023-05-14T05:32:07;100472.81;;;15.62;47.63
4570;BME280;2297;51.442;6.996;2023-05-14T05:34:34;100472.69;;;15.66;47.83
4570;BME280;2297;51.442;6.996;2023-05-14T05:37:01;100475.94;;;15.74;47.77
4570;BME280;2297;51.442;6.996;2023-05-14T05:39:29;100474.06;;;15.76;47.43
4570;BME280;2297;51.442;6.996;2023-05-14T05:41:59;100481.13;;;15.77;47.52
4570;BME280;2297;51.442;6.996;2023-05-14T05:44:25;100481.88;;;15.80;47.83
4570;BME280;2297;51.442;6.996;2023-05-14T05:46:52;100486.16;;;15.85;47.64
4570;BME280;2297;51.442;6.996;2023-05-14T05:49:20;100487.19;;;15.80;47.49
4570;BME280;2297;51.442;6.996;2023-05-14T05:51:47;100483.34;;;15.88;47.61
4570;BME280;2297;51.442;6.996;2023-05-14T05:54:13;100484.09;;;15.91;47.62
4570;BME280;2297;51.442;6.996;2023-05-14T05:56:41;100486.56;;;15.96;47.39
4570;BME280;2297;51.442;6.996;2023-05-14T05:59:08;100491.81;;;15.97;47.59
4570;BME280;2297;51.442;6.996;2023-05-14T06:01:35;100486.34;;;16.02;47.48
4570;BME280;2297;51.442;6.996;2023-05-14T06:04:01;100488.09;;;16.03;47.51
4570;BME280;2297;51.442;6.996;2023-05-14T06:06:29;100487.97;;;16.06;47.79
4570;BME280;2297;51.442;6.996;2023-05-14T06:08:57;100491.31;;;16.11;47.83
4570;BME280;2297;51.442;6.996;2023-05-14T06:11:23;100494.66;;;16.17;47.41
4570;BME280;2297;51.442;6.996;2023-05-14T06:13:52;100488.19;;;16.22;46.53
4570;BME280;2297;51.442;6.996;2023-05-14T06:16:18;100495.25;;;16.23;46.06
4570;BME280;2297;51.442;6.996;2023-05-14T06:19:07;100496.72;;;16.30;45.53
4570;BME280;2297;51.442;6.996;2023-05-14T06:21:34;100501.88;;;16.35;45.51
4570;BME280;2297;51.442;6.996;2023-05-14T06:24:00;100497.22;;;16.40;45.00
4570;BME280;2297;51.442;6.996;2023-05-14T06:26:27;100500.00;;;16.37;44.53
4570;BME280;2297;51.442;6.996;2023-05-14T06:28:55;100495.47;;;16.39;44.89
4570;BME280;2297;51.442;6.996;2023-05-14T06:31:22;100494.47;;;16.42;44.01
4570;BME280;2297;51.442;6.996;2023-05-14T06:33:49;100492.50;;;16.47;42.97
4570;BME280;2297;51.442;6.996;2023-05-14T06:36:15;100496.91;;;16.48;43.36
4570;BME280;2297;51.442;6.996;2023-05-14T06:38:42;100502.00;;;16.53;43.23
4570;BME280;2297;51.442;6.996;2023-05-14T06:41:09;100502.00;;;16.53;43.17
4570;BME280;2297;51.442;6.996;2023-05-14T06:43:35;100501.00;;;16.55;41.87
4570;BME280;2297;51.442;6.996;2023-05-14T06:46:03;100499.16;;;16.57;42.11
4570;BME280;2297;51.442;6.996;2023-05-14T06:48:30;100488.53;;;16.56;41.56
4570;BME280;2297;51.442;6.996;2023-05-14T06:50:56;100493.84;;;16.57;41.39
4570;BME280;2297;51.442;6.996;2023-05-14T06:53:23;100491.03;;;16.60;41.74
4570;BME280;2297;51.442;6.996;2023-05-14T06:55:50;100490.81;;;16.65;41.74
4570;BME280;2297;51.442;6.996;2023-05-14T06:58:16;100492.41;;;16.69;41.36
4570;BME280;2297;51.442;6.996;2023-05-14T07:00:43;100500.38;;;16.71;41.74
4570;BME280;2297;51.442;6.996;2023-05-14T07:03:11;100492.06;;;16.77;41.51
4570;BME280;2297;51.442;6.996;2023-05-14T07:05:37;100497.34;;;16.78;41.20
4570;BME280;2297;51.442;6.996;2023-05-14T07:08:05;100493.38;;;16.89;42.13
4570;BME280;2297;51.442;6.996;2023-05-14T07:10:32;100484.16;;;16.96;40.44
4570;BME280;2297;51.442;6.996;2023-05-14T07:12:58;100493.09;;;16.95;40.61
4570;BME280;2297;51.442;6.996;2023-05-14T07:15:25;100481.44;;;16.98;40.44
4570;BME280;2297;51.442;6.996;2023-05-14T07:18:15;100480.28;;;17.03;40.77
4570;BME280;2297;51.442;6.996;2023-05-14T07:20:41;100486.28;;;17.08;41.19
4570;BME280;2297;51.442;6.996;2023-05-14T07:23:08;100481.75;;;17.10;40.55
4570;BME280;2297;51.442;6.996;2023-05-14T07:25:35;100480.75;;;17.13;40.83
4570;BME280;2297;51.442;6.996;2023-05-14T07:28:01;100480.00;;;17.09;40.88
4570;BME280;2297;51.442;6.996;2023-05-14T07:30:28;100477.00;;;17.17;41.19
4570;BME280;2297;51.442;6.996;2023-05-14T07:32:55;100479.44;;;17.22;40.54
4570;BME280;2297;51.442;6.996;2023-05-14T07:35:23;100479.16;;;17.28;40.72
4570;BME280;2297;51.442;6.996;2023-05-14T07:37:49;100480.50;;;17.37;40.89
4570;BME280;2297;51.442;6.996;2023-05-14T07:40:16;100475.25;;;17.35;40.64
4570;BME280;2297;51.442;6.996;2023-05-14T07:42:49;100477.00;;;17.36;40.22
4570;BME280;2297;51.442;6.996;2023-05-14T07:45:16;100473.81;;;17.47;41.15
4570;BME280;2297;51.442;6.996;2023-05-14T07:47:42;100476.84;;;17.58;41.73
4570;BME280;2297;51.442;6.996;2023-05-14T07:50:10;100468.44;;;17.68;39.83
4570;BME280;2297;51.442;6.996;2023-05-14T07:52:38;100473.41;;;17.75;40.06
4570;BME280;2297;51.442;6.996;2023-05-14T07:55:06;100471.69;;;17.74;40.23
4570;BME280;2297;51.442;6.996;2023-05-14T07:57:32;100474.09;;;17.79;40.71
4570;BME280;2297;51.442;6.996;2023-05-14T07:59:59;100469.47;;;17.83;40.42
4570;BME280;2297;51.442;6.996;2023-05-14T08:02:25;100472.31;;;17.79;39.55
4570;BME280;2297;51.442;6.996;2023-05-14T08:04:52;100476.88;;;17.95;39.26
4570;BME280;2297;51.442;6.996;2023-05-14T08:07:19;100470.97;;;17.88;38.60
4570;BME280;2297;51.442;6.996;2023-05-14T08:09:47;100473.53;;;17.91;37.73
4570;BME280;2297;51.442;6.996;2023-05-14T08:12:14;100476.31;;;18.07;38.09
4570;BME280;2297;51.442;6.996;2023-05-14T08:14:41;100470.97;;;18.07;38.12
4570;BME280;2297;51.442;6.996;2023-05-14T08:17:08;100467.81;;;18.17;37.69
4570;BME280;2297;51.442;6.996;2023-05-14T08:19:34;100463.34;;;18.17;37.22
4570;BME280;2297;51.442;6.996;2023-05-14T08:22:01;100460.81;;;18.32;36.03
4570;BME280;2297;51.442;6.996;2023-05-14T08:24:28;100465.78;;;18.39;35.66
4570;BME280;2297;51.442;6.996;2023-05-14T08:26:56;100463.09;;;18.39;34.95
4570;BME280;2297;51.442;6.996;2023-05-14T08:29:22;100470.44;;;18.53;35.05
4570;BME280;2297;51.442;6.996;2023-05-14T08:31:50;100470.03;;;18.61;34.97
4570;BME280;2297;51.442;6.996;2023-05-14T08:34:16;100472.84;;;18.75;35.09
4570;BME280;2297;51.442;6.996;2023-05-14T08:36:43;100466.72;;;18.73;35.11
4570;BME280;2297;51.442;6.996;2023-05-14T08:39:10;100471.84;;;18.78;34.93
4570;BME280;2297;51.442;6.996;2023-05-14T08:41:38;100471.56;;;18.83;34.88
4570;BME280;2297;51.442;6.996;2023-05-14T08:44:11;100461.41;;;18.89;35.23
4570;BME280;2297;51.442;6.996;2023-05-14T08:46:39;100455.38;;;18.86;35.46
4570;BME280;2297;51.442;6.996;2023-05-14T08:49:13;100457.88;;;18.89;35.40
4570;BME280;2297;51.442;6.996;2023-05-14T08:51:42;100456.75;;;18.93;35.71
4570;BME280;2297;51.442;6.996;2023-05-14T08:54:11;100461.00;;;18.97;35.00
4570;BME280;2297;51.442;6.996;2023-05-14T08:56:43;100456.13;;;19.05;34.73
4570;BME280;2297;51.442;6.996;2023-05-14T08:59:12;100449.22;;;19.17;34.62
4570;BME280;2297;51.442;6.996;2023-05-14T09:01:47;100451.13;;;19.15;34.53
4570;BME280;2297;51.442;6.996;2023-05-14T09:04:18;100457.47;;;19.30;34.15
4570;BME280;2297;51.442;6.996;2023-05-14T09:06:48;100443.91;;;19.33;34.08
4570;BME280;2297;51.442;6.996;2023-05-14T09:09:15;100443.06;;;19.49;33.55
4570;BME280;2297;51.442;6.996;2023-05-14T09:11:41;100440.19;;;19.52;33.49
4570;BME280;2297;51.442;6.996;2023-05-14T09:14:08;100441.25;;;19.49;33.81
4570;BME280;2297;51.442;6.996;2023-05-14T09:16:37;100440.97;;;19.54;33.42
4570;BME280;2297;51.442;6.996;2023-05-14T09:19:05;100438.56;;;19.65;32.88
4570;BME280;2297;51.442;6.996;2023-05-14T09:21:32;100433.88;;;19.53;31.59
4570;BME280;2297;51.442;6.996;2023-05-14T09:23:59;100434.06;;;19.50;31.62
4570;BME280;2297;51.442;6.996;2023-05-14T09:26:27;100435.09;;;19.63;32.27
4570;BME280;2297;51.442;6.996;2023-05-14T09:28:58;100429.53;;;19.82;30.64
4570;BME280;2297;51.442;6.996;2023-05-14T09:31:26;100433.19;;;19.81;31.00
4570;BME280;2297;51.442;6.996;2023-05-14T09:33:54;100422.28;;;19.84;31.62
4570;BME280;2297;51.442;6.996;2023-05-14T09:36:22;100428.59;;;19.99;30.95
4570;BME280;2297;51.442;6.996;2023-05-14T09:38:49;100430.03;;;19.89;31.65
4570;BME280;2297;51.442;6.996;2023-05-14T09:41:16;100429.53;;;19.98;31.28
4570;BME280;2297;51.442;6.996;2023-05-14T09:43:43;100426.69;;;20.01;30.89
4570;BME280;2297;51.442;6.996;2023-05-14T09:46:09;100432.91;;;20.02;31.21
4570;BME280;2297;51.442;6.996;2023-05-14T09:48:36;100426.56;;;20.19;30.66
4570;BME280;2297;51.442;6.996;2023-05-14T09:51:04;100421.97;;;20.35;29.78
4570;BME280;2297;51.442;6.996;2023-05-14T09:53:31;100413.16;;;20.19;30.01
4570;BME280;2297;51.442;6.996;2023-05-14T09:55:59;100412.88;;;20.23;29.95
4570;BME280;2297;51.442;6.996;2023-05-14T09:58:25;100411.88;;;20.55;30.32
4570;BME280;2297;51.442;6.996;2023-05-14T10:00:52;100416.22;;;20.72;29.73
4570;BME280;2297;51.442;6.996;2023-05-14T10:03:21;100408.47;;;20.67;29.58
4570;BME280;2297;51.442;6.996;2023-05-14T10:05:50;100414.22;;;20.31;29.21
4570;BME280;2297;51.442;6.996;2023-05-14T10:08:23;100414.69;;;20.82;28.75
4570;BME280;2297;51.442;6.996;2023-05-14T10:10:53;100410.59;;;20.76;29.67
4570;BME280;2297;51.442;6.996;2023-05-14T10:13:22;100406.16;;;20.90;29.08
4570;BME280;2297;51.442;6.996;2023-05-14T10:15:53;100410.06;;;20.70;29.27
4570;BME280;2297;51.442;6.996;2023-05-14T10:18:23;100403.19;;;20.94;29.09
4570;BME280;2297;51.442;6.996;2023-05-14T10:20:56;100393.13;;;20.98;29.06
4570;BME280;2297;51.442;6.996;2023-05-14T10:23:28;100394.44;;;21.05;29.55
4570;BME280;2297;51.442;6.996;2023-05-14T10:25:55;100396.25;;;21.19;28.68
4570;BME280;2297;51.442;6.996;2023-05-14T10:28:22;100386.44;;;21.33;28.08
4570;BME280;2297;51.442;6.996;2023-05-14T10:30:49;100389.06;;;21.34;28.46
4570;BME280;2297;51.442;6.996;2023-05-14T10:33:16;100386.13;;;21.52;28.20
4570;BME280;2297;51.442;6.996;2023-05-14T10:36:10;100385.50;;;21.61;28.58
4570;BME280;2297;51.442;6.996;2023-05-14T10:38:38;100389.38;;;21.57;28.28
4570;BME280;2297;51.442;6.996;2023-05-14T10:41:10;100381.47;;;21.68;28.25
4570;BME280;2297;51.442;6.996;2023-05-14T10:43:38;100377.34;;;21.63;28.38
4570;BME280;2297;51.442;6.996;2023-05-14T10:46:06;100375.75;;;21.60;28.11
4570;BME280;2297;51.442;6.996;2023-05-14T10:48:33;100374.91;;;21.72;25.62
4570;BME280;2297;51.442;6.996;2023-05-14T10:51:00;100382.44;;;21.67;25.72
4570;BME280;2297;51.442;6.996;2023-05-14T10:53:34;100371.47;;;21.70;26.03
4570;BME280;2297;51.442;6.996;2023-05-14T10:56:07;100364.94;;;21.87;25.59
4570;BME280;2297;51.442;6.996;2023-05-14T10:58:35;100359.00;;;21.69;24.36
4570;BME280;2297;51.442;6.996;2023-05-14T11:01:03;100368.38;;;21.76;24.48
4570;BME280;2297;51.442;6.996;2023-05-14T11:03:32;100372.78;;;21.50;25.42
4570;BME280;2297;51.442;6.996;2023-05-14T11:06:04;100356.31;;;21.69;25.80
4570;BME280;2297;51.442;6.996;2023-05-14T11:08:32;100358.47;;;21.77;25.95
4570;BME280;2297;51.442;6.996;2023-05-14T11:10:59;100353.81;;;21.66;25.37
4570;BME280;2297;51.442;6.996;2023-05-14T11:13:27;100361.75;;;21.95;25.59
4570;BME280;2297;51.442;6.996;2023-05-14T11:15:54;100351.66;;;21.99;26.13
4570;BME280;2297;51.442;6.996;2023-05-14T11:18:25;100355.13;;;22.14;26.87
4570;BME280;2297;51.442;6.996;2023-05-14T11:20:53;100351.47;;;22.27;26.94
4570;BME280;2297;51.442;6.996;2023-05-14T11:23:23;100346.44;;;22.36;26.41
4570;BME280;2297;51.442;6.996;2023-05-14T11:25:51;100337.72;;;22.32;26.54
4570;BME280;2297;51.442;6.996;2023-05-14T11:28:19;100341.16;;;22.34;26.19
4570;BME280;2297;51.442;6.996;2023-05-14T11:30:47;100343.09;;;22.45;26.12
4570;BME280;2297;51.442;6.996;2023-05-14T11:33:14;100339.53;;;22.44;27.27
4570;BME280;2297;51.442;6.996;2023-05-14T11:35:41;100338.56;;;22.33;25.81
4570;BME280;2297;51.442;6.996;2023-05-14T11:38:13;100337.72;;;22.32;26.16
4570;BME280;2297;51.442;6.996;2023-05-14T11:40:39;100332.75;;;22.26;25.06
4570;BME280;2297;51.442;6.996;2023-05-14T11:43:06;100328.03;;;22.17;23.97
4570;BME280;2297;51.442;6.996;2023-05-14T11:45:33;100325.00;;;22.60;24.06
4570;BME280;2297;51.442;6.996;2023-05-14T11:48:10;100315.09;;;22.86;23.09
4570;BME280;2297;51.442;6.996;2023-05-14T11:50:37;100322.50;;;23.20;24.09
4570;BME280;2297;51.442;6.996;2023-05-14T11:53:04;100330.72;;;23.42;24.22
4570;BME280;2297;51.442;6.996;2023-05-14T11:55:33;100324.22;;;23.69;25.03
4570;BME280;2297;51.442;6.996;2023-05-14T11:58:00;100320.22;;;23.86;24.17
4570;BME280;2297;51.442;6.996;2023-05-14T12:00:27;100319.56;;;23.96;23.88
4570;BME280;2297;51.442;6.996;2023-05-14T12:02:55;100312.81;;;24.01;22.16
4570;BME280;2297;51.442;6.996;2023-05-14T12:05:23;100311.63;;;24.17;22.03
4570;BME280;2297;51.442;6.996;2023-05-14T12:07:50;100301.09;;;24.14;23.05
4570;BME280;2297;51.442;6.996;2023-05-14T12:10:17;100307.66;;;23.98;22.44
4570;BME280;2297;51.442;6.996;2023-05-14T12:12:45;100305.78;;;23.87;22.90
4570;BME280;2297;51.442;6.996;2023-05-14T12:15:13;100306.25;;;23.81;22.71
4570;BME280;2297;51.442;6.996;2023-05-14T12:17:40;100307.03;;;23.95;23.86
4570;BME280;2297;51.442;6.996;2023-05-14T12:20:08;100308.84;;;23.94;23.03
4570;BME280;2297;51.442;6.996;2023-05-14T12:22:37;100300.47;;;23.74;22.03
4570;BME280;2297;51.442;6.996;2023-05-14T12:25:10;100299.84;;;23.35;22.21
4570;BME280;2297;51.442;6.996;2023-05-14T12:27:38;100297.50;;;23.18;21.50
4570;BME280;2297;51.442;6.996;2023-05-14T12:30:06;100294.84;;;22.81;21.62
4570;BME280;2297;51.442;6.996;2023-05-14T12:32:33;100295.03;;;22.90;21.44
4570;BME280;2297;51.442;6.996;2023-05-14T12:35:00;100289.63;;;23.03;22.68
4570;BME280;2297;51.442;6.996;2023-05-14T12:37:26;100276.56;;;23.34;22.56
4570;BME280;2297;51.442;6.996;2023-05-14T12:39:54;100272.94;;;23.47;22.83
4570;BME280;2297;51.442;6.996;2023-05-14T12:42:21;100276.31;;;23.73;23.57
4570;BME280;2297;51.442;6.996;2023-05-14T12:44:48;100265.22;;;23.78;22.44
4570;BME280;2297;51.442;6.996;2023-05-14T12:47:15;100268.66;;;23.91;23.28
4570;BME280;2297;51.442;6.996;2023-05-14T12:49:42;100276.47;;;23.83;22.65
4570;BME280;2297;51.442;6.996;2023-05-14T12:52:09;100273.28;;;23.78;22.64
4570;BME280;2297;51.442;6.996;2023-05-14T12:54:35;100274.28;;;23.52;23.26
4570;BME280;2297;51.442;6.996;2023-05-14T12:57:06;100266.56;;;23.48;23.64
4570;BME280;2297;51.442;6.996;2023-05-14T12:59:33;100256.03;;;23.45;23.42
4570;BME280;2297;51.442;6.996;2023-05-14T13:02:00;100255.25;;;23.31;23.74
4570;BME280;2297;51.442;6.996;2023-05-14T13:04:26;100245.97;;;23.35;24.12
4570;BME280;2297;51.442;6.996;2023-05-14T13:06:53;100250.75;;;23.43;24.25
4570;BME280;2297;51.442;6.996;2023-05-14T13:09:20;100249.75;;;23.80;24.45
4570;BME280;2297;51.442;6.996;2023-05-14T13:11:46;100248.34;;;23.98;24.67